createdAt,value
2023-05-16T00:01:06.060Z,74.04
2023-05-16T00:03:51.741Z,73.89
2023-05-16T00:06:36.285Z,74.05
2023-05-16T00:09:20.321Z,73.59
2023-05-16T00:12:04.973Z,73.65
2023-05-16T00:14:48.972Z,73.99
2023-05-16T00:17:33.122Z,74.96
2023-05-16T00:20:19.081Z,76.54
2023-05-16T00:23:03.496Z,76.70
2023-05-16T00:25:47.668Z,77.29
2023-05-16T00:28:31.678Z,76.88
2023-05-16T00:31:15.630Z,76.21
2023-05-16T00:33:59.632Z,76.28
2023-05-16T00:36:45.177Z,75.98
2023-05-16T00:39:28.966Z,77.25
2023-05-16T00:42:13.880Z,76.98
2023-05-16T00:44:57.640Z,76.31
2023-05-16T00:47:41.706Z,76.74
2023-05-16T00:50:25.866Z,76.05
2023-05-16T00:53:12.151Z,77.00
2023-05-16T00:55:57.698Z,77.20
2023-05-16T00:58:41.825Z,77.58
2023-05-16T01:01:27.743Z,77.24
2023-05-16T01:04:12.035Z,77.22
2023-05-16T01:06:57.204Z,77.64
2023-05-16T01:09:42.566Z,78.71
2023-05-16T01:12:36.446Z,77.46
2023-05-16T01:15:25.736Z,76.50
2023-05-16T01:18:17.481Z,77.56
2023-05-16T01:21:05.778Z,76.12
2023-05-16T01:23:58.232Z,74.76
2023-05-16T01:26:44.065Z,73.88
2023-05-16T01:29:27.892Z,73.47
2023-05-16T01:32:11.868Z,73.54
2023-05-16T01:34:55.722Z,75.00
2023-05-16T01:37:46.219Z,75.97
2023-05-16T01:40:37.783Z,76.01
2023-05-16T01:43:32.448Z,75.28
2023-05-16T01:46:19.910Z,75.08
2023-05-16T01:49:16.909Z,75.32
2023-05-16T01:52:03.464Z,75.64
2023-05-16T01:54:54.616Z,76.50
2023-05-16T01:57:39.834Z,76.55
2023-05-16T02:00:25.133Z,76.28
2023-05-16T02:03:09.004Z,75.72
2023-05-16T02:05:53.040Z,76.43
2023-05-16T02:08:36.827Z,76.63
2023-05-16T02:11:21.368Z,77.72
2023-05-16T02:14:05.305Z,77.62
2023-05-16T02:16:51.169Z,77.67
2023-05-16T02:19:35.163Z,76.60
2023-05-16T02:22:18.951Z,76.13
2023-05-16T02:25:04.449Z,75.82
2023-05-16T02:27:49.413Z,77.21
2023-05-16T02:30:33.161Z,77.67
2023-05-16T02:33:18.436Z,77.91
2023-05-16T02:36:03.667Z,78.85
2023-05-16T02:38:47.576Z,78.75
2023-05-16T02:41:31.884Z,79.08
2023-05-16T02:44:16.260Z,78.20
2023-05-16T02:47:00.135Z,77.08
2023-05-16T02:49:45.592Z,76.37
2023-05-16T02:52:29.388Z,74.99
2023-05-16T02:55:21.624Z,74.71
2023-05-16T02:58:06.388Z,74.21
2023-05-16T03:00:50.348Z,73.30
2023-05-16T03:03:35.451Z,73.02
2023-05-16T03:06:20.746Z,72.99
2023-05-16T03:09:04.746Z,72.63
2023-05-16T03:11:48.584Z,71.75
2023-05-16T03:14:32.430Z,72.38
2023-05-16T03:17:16.246Z,72.69
2023-05-16T03:20:00.219Z,71.29
2023-05-16T03:22:48.179Z,73.32
2023-05-16T03:25:31.988Z,73.01
2023-05-16T03:28:16.996Z,72.44
2023-05-16T03:31:01.886Z,71.61
2023-05-16T03:33:46.034Z,71.10
2023-05-16T03:36:30.321Z,71.04
2023-05-16T03:39:15.776Z,71.10
2023-05-16T03:41:59.586Z,70.23
2023-05-16T03:44:43.459Z,69.61
2023-05-16T03:47:30.567Z,69.30
2023-05-16T03:50:14.408Z,68.55
2023-05-16T03:52:58.187Z,68.71
2023-05-16T03:55:43.973Z,69.01
2023-05-16T03:58:28.326Z,68.27
2023-05-16T04:01:12.155Z,69.91
2023-05-16T04:03:56.017Z,68.94
2023-05-16T04:06:39.960Z,69.31
2023-05-16T04:09:23.755Z,67.99
2023-05-16T04:12:09.686Z,71.13
2023-05-16T04:14:53.379Z,73.86
2023-05-16T04:17:37.437Z,72.85
2023-05-16T04:20:21.475Z,73.52
2023-05-16T04:23:05.764Z,70.53
2023-05-16T04:25:50.760Z,67.80
2023-05-16T04:28:36.116Z,66.54
2023-05-16T04:31:20.033Z,66.06
2023-05-16T04:34:03.989Z,64.15
2023-05-16T04:36:47.786Z,63.77
2023-05-16T04:39:31.510Z,62.94
2023-05-16T04:42:15.323Z,64.97
2023-05-16T04:45:00.766Z,68.58
2023-05-16T04:47:44.669Z,71.57
2023-05-16T04:50:28.602Z,74.00
2023-05-16T04:53:12.518Z,70.58
2023-05-16T04:55:56.454Z,68.45
2023-05-16T04:58:42.719Z,65.67
2023-05-16T05:01:28.258Z,63.87
2023-05-16T05:04:12.377Z,61.32
2023-05-16T05:06:56.542Z,60.04
2023-05-16T05:09:40.769Z,58.83
2023-05-16T05:12:25.997Z,58.33
2023-05-16T05:15:10.299Z,57.59
2023-05-16T05:17:55.810Z,57.16
2023-05-16T05:20:40.046Z,56.06
2023-05-16T05:23:23.817Z,55.90
2023-05-16T05:26:07.617Z,55.45
2023-05-16T05:29:03.973Z,54.98
2023-05-16T05:31:48.787Z,55.97
2023-05-16T05:34:34.050Z,56.38
2023-05-16T05:37:18.002Z,55.89
2023-05-16T05:40:02.116Z,57.73
2023-05-16T05:42:49.346Z,56.87
2023-05-16T05:45:33.336Z,56.61
2023-05-16T05:48:17.414Z,55.92
2023-05-16T05:51:02.734Z,54.02
2023-05-16T05:53:46.783Z,54.62
2023-05-16T05:56:30.760Z,56.28
2023-05-16T05:59:14.585Z,56.03
2023-05-16T06:01:58.978Z,56.17
2023-05-16T06:04:43.516Z,55.18
2023-05-16T06:07:28.827Z,52.91
2023-05-16T06:10:12.768Z,54.54
2023-05-16T06:12:56.735Z,53.38
2023-05-16T06:15:40.681Z,51.11
2023-05-16T06:18:24.928Z,49.52
2023-05-16T06:21:08.923Z,51.07
2023-05-16T06:23:54.509Z,50.50
2023-05-16T06:26:38.552Z,49.64
2023-05-16T06:29:22.770Z,48.58
2023-05-16T06:32:07.644Z,48.62
2023-05-16T06:34:51.884Z,45.64
2023-05-16T06:37:36.152Z,46.25
2023-05-16T06:40:21.579Z,43.70
2023-05-16T06:43:05.478Z,48.27
2023-05-16T06:45:49.296Z,46.94
2023-05-16T06:48:33.164Z,46.52
2023-05-16T06:51:17.803Z,44.69
2023-05-16T06:54:03.945Z,41.12
2023-05-16T06:56:49.503Z,41.25
2023-05-16T06:59:33.298Z,41.74
2023-05-16T07:02:17.324Z,41.39
2023-05-16T07:05:01.310Z,45.29
2023-05-16T07:07:47.737Z,47.16
2023-05-16T07:10:31.767Z,49.84
2023-05-16T07:13:17.040Z,50.77
2023-05-16T07:16:01.149Z,51.15
2023-05-16T07:18:45.241Z,51.68
2023-05-16T07:21:29.372Z,52.17
2023-05-16T07:24:13.325Z,52.64
2023-05-16T07:26:57.203Z,52.67
2023-05-16T07:29:42.865Z,52.19
2023-05-16T07:32:26.845Z,51.82
2023-05-16T07:35:11.629Z,50.91
2023-05-16T07:37:55.607Z,50.69
2023-05-16T07:40:39.594Z,51.28
2023-05-16T07:43:23.422Z,51.80
2023-05-16T07:46:08.802Z,50.87
2023-05-16T07:48:52.856Z,52.22
2023-05-16T07:51:36.747Z,51.81
2023-05-16T07:54:20.764Z,51.67
2023-05-16T07:57:05.233Z,52.17
2023-05-16T07:59:49.109Z,52.03
2023-05-16T08:02:34.601Z,53.10
2023-05-16T08:05:19.290Z,53.10
2023-05-16T08:08:03.164Z,53.29
2023-05-16T08:10:47.384Z,52.70
2023-05-16T08:13:31.831Z,51.90
2023-05-16T08:16:15.734Z,50.74
2023-05-16T08:19:01.181Z,50.88
2023-05-16T08:21:45.185Z,51.69
2023-05-16T08:24:29.197Z,49.59
2023-05-16T08:27:13.256Z,49.02
2023-05-16T08:29:57.181Z,50.61
2023-05-16T08:32:41.319Z,50.67
2023-05-16T08:35:27.014Z,49.71
2023-05-16T08:38:11.033Z,50.10
2023-05-16T08:40:54.984Z,50.63
2023-05-16T08:43:38.820Z,49.48
2023-05-16T08:46:24.397Z,49.34
2023-05-16T08:49:10.518Z,48.44
2023-05-16T08:51:59.386Z,47.18
2023-05-16T08:54:52.676Z,46.56
2023-05-16T08:57:42.865Z,47.24
2023-05-16T09:00:28.124Z,46.25
2023-05-16T09:03:12.555Z,46.25
2023-05-16T09:05:56.663Z,45.64
2023-05-16T09:08:43.049Z,45.21
2023-05-16T09:11:26.973Z,45.19
2023-05-16T09:14:10.926Z,45.09
2023-05-16T09:17:06.033Z,44.18
2023-05-16T09:19:52.935Z,43.59
2023-05-16T09:22:36.931Z,44.12
2023-05-16T09:28:12.505Z,42.95
2023-05-16T09:30:59.325Z,42.96
2023-05-16T09:33:43.869Z,42.15
2023-05-16T09:36:27.843Z,39.87
2023-05-16T09:39:12.427Z,40.38
2023-05-16T09:41:59.771Z,39.44
2023-05-16T09:44:47.410Z,37.95
2023-05-16T09:47:31.380Z,38.46
2023-05-16T09:50:17.330Z,37.99
2023-05-16T09:53:01.680Z,37.36
2023-05-16T09:55:45.755Z,38.36
2023-05-16T09:58:33.522Z,40.87
2023-05-16T10:01:20.398Z,42.31
2023-05-16T10:04:04.672Z,43.00
2023-05-16T10:06:52.478Z,44.55
2023-05-16T10:09:36.874Z,44.78
2023-05-16T10:12:22.643Z,44.77
2023-05-16T10:15:09.832Z,45.07
2023-05-16T10:17:57.794Z,45.80
2023-05-16T10:20:43.630Z,43.73
2023-05-16T10:23:27.890Z,44.37
2023-05-16T10:26:14.742Z,43.36
2023-05-16T10:28:58.974Z,43.21
2023-05-16T10:31:46.030Z,43.80
2023-05-16T10:34:30.508Z,43.50
2023-05-16T10:37:14.526Z,43.27
2023-05-16T10:39:59.119Z,43.51
2023-05-16T10:42:46.804Z,41.60
2023-05-16T10:45:31.420Z,41.69
2023-05-16T10:48:17.147Z,41.06
2023-05-16T10:51:02.815Z,40.60
2023-05-16T10:53:46.796Z,38.92
2023-05-16T10:56:31.025Z,38.73
2023-05-16T10:59:26.235Z,39.15
2023-05-16T11:02:24.937Z,39.41
2023-05-16T11:05:15.251Z,39.26
2023-05-16T11:08:06.058Z,39.07
2023-05-16T11:10:49.850Z,38.54
2023-05-16T11:13:34.512Z,38.30
2023-05-16T11:16:31.576Z,38.21
2023-05-16T11:19:15.601Z,38.64
2023-05-16T11:22:25.942Z,39.97
2023-05-16T11:25:11.315Z,38.29
2023-05-16T11:27:56.113Z,39.07
2023-05-16T11:30:46.934Z,41.02
2023-05-16T11:33:35.683Z,41.89
2023-05-16T11:36:19.651Z,41.42
2023-05-16T11:39:10.518Z,42.40
2023-05-16T11:41:55.368Z,41.43
2023-05-16T11:44:39.346Z,40.55
2023-05-16T11:47:23.275Z,39.23
2023-05-16T11:50:10.114Z,40.27
2023-05-16T11:52:57.620Z,39.39
2023-05-16T11:55:43.618Z,38.77
2023-05-16T11:58:28.977Z,37.82
2023-05-16T12:01:13.042Z,37.60
2023-05-16T12:03:58.258Z,36.58
2023-05-16T12:06:44.599Z,34.72
2023-05-16T12:09:28.756Z,34.96
2023-05-16T12:12:14.197Z,35.20
2023-05-16T12:15:00.521Z,34.61
2023-05-16T12:17:44.977Z,34.86
2023-05-16T12:20:29.055Z,35.27
2023-05-16T12:23:13.705Z,34.89
2023-05-16T12:25:58.571Z,34.49
2023-05-16T12:28:44.860Z,33.96
2023-05-16T12:31:32.190Z,36.54
2023-05-16T12:34:20.861Z,37.43
2023-05-16T12:37:04.980Z,38.32
2023-05-16T12:39:51.814Z,36.50
2023-05-16T12:42:35.919Z,37.77
2023-05-16T12:45:21.280Z,38.23
2023-05-16T12:48:13.579Z,37.23
2023-05-16T12:50:57.619Z,38.90
2023-05-16T12:53:54.435Z,39.35
2023-05-16T12:56:48.627Z,40.07
2023-05-16T12:59:32.721Z,40.34
2023-05-16T13:02:19.064Z,42.17
2023-05-16T13:05:02.886Z,44.58
2023-05-16T13:07:47.379Z,44.10
2023-05-16T13:10:31.299Z,44.84
2023-05-16T13:13:25.038Z,42.79
2023-05-16T13:16:19.346Z,41.97
2023-05-16T13:19:05.482Z,40.26
2023-05-16T13:21:49.447Z,39.22
2023-05-16T13:24:33.636Z,39.73
2023-05-16T13:27:18.379Z,41.21
2023-05-16T13:30:02.444Z,37.86
2023-05-16T13:32:54.060Z,37.59
2023-05-16T13:35:39.490Z,38.81
2023-05-16T13:38:23.766Z,39.21
2023-05-16T13:41:07.752Z,39.17
2023-05-16T13:43:51.628Z,40.34
2023-05-16T13:46:36.094Z,41.37
2023-05-16T13:49:20.054Z,41.47
2023-05-16T13:52:05.650Z,40.64
2023-05-16T13:54:49.570Z,41.19
2023-05-16T13:57:34.239Z,42.95
2023-05-16T14:00:35.842Z,44.37
2023-05-16T14:03:24.074Z,44.48
2023-05-16T14:06:09.080Z,44.15
2023-05-16T14:08:54.401Z,43.29
2023-05-16T14:11:38.364Z,42.30
2023-05-16T14:14:22.444Z,42.12
2023-05-16T14:17:07.623Z,43.82
2023-05-16T14:19:51.495Z,44.62
2023-05-16T14:22:35.422Z,46.42
2023-05-16T14:25:20.884Z,43.85
2023-05-16T14:28:04.954Z,44.84
2023-05-16T14:30:49.175Z,45.53
2023-05-16T14:33:33.544Z,45.97
2023-05-16T14:36:17.459Z,46.85
2023-05-16T14:39:01.570Z,46.16
2023-05-16T14:41:47.260Z,44.78
2023-05-16T14:44:31.613Z,46.59
2023-05-16T14:47:15.624Z,44.81
2023-05-16T14:50:00.766Z,46.22
2023-05-16T14:52:45.024Z,48.51
2023-05-16T14:55:29.192Z,48.67
2023-05-16T14:58:15.042Z,48.80
2023-05-16T15:00:58.959Z,49.34
2023-05-16T15:03:54.643Z,49.40
2023-05-16T15:06:40.356Z,48.88
2023-05-16T15:09:24.334Z,49.26
2023-05-16T15:12:09.006Z,49.58
2023-05-16T15:14:54.282Z,49.78
2023-05-16T15:17:38.456Z,50.64
2023-05-16T15:20:22.840Z,51.45
2023-05-16T15:23:07.347Z,50.74
2023-05-16T15:25:52.466Z,50.74
2023-05-16T15:28:36.819Z,52.09
2023-05-16T15:31:22.573Z,52.36
2023-05-16T15:34:08.685Z,52.71
2023-05-16T15:36:52.848Z,51.68
2023-05-16T15:39:37.369Z,52.18
2023-05-16T15:42:21.667Z,52.49
2023-05-16T15:45:06.574Z,51.68
2023-05-16T15:47:52.240Z,52.21
2023-05-16T15:50:36.497Z,51.29
2023-05-16T15:53:20.526Z,52.81
2023-05-16T15:56:04.566Z,52.69
2023-05-16T15:58:48.720Z,51.50
2023-05-16T16:01:32.796Z,50.08
2023-05-16T16:04:21.665Z,52.39
2023-05-16T16:07:07.426Z,51.04
2023-05-16T16:09:51.542Z,45.55
2023-05-16T16:12:37.197Z,44.43
2023-05-16T16:15:21.239Z,44.37
2023-05-16T16:18:06.631Z,45.89
2023-05-16T16:20:53.153Z,46.29
2023-05-16T16:23:37.380Z,46.67
2023-05-16T16:26:21.508Z,48.22
2023-05-16T16:29:06.633Z,50.44
2023-05-16T16:31:50.874Z,53.33
2023-05-16T16:34:35.118Z,53.24
2023-05-16T16:37:20.763Z,53.01
2023-05-16T16:40:05.460Z,53.31
2023-05-16T16:42:49.553Z,53.62
2023-05-16T16:45:33.964Z,53.83
2023-05-16T16:48:17.952Z,54.82
2023-05-16T16:51:02.148Z,54.40
2023-05-16T16:53:47.743Z,56.05
2023-05-16T16:56:31.680Z,56.57
2023-05-16T16:59:15.626Z,57.60
2023-05-16T17:01:59.683Z,58.97
2023-05-16T17:04:43.593Z,60.88
2023-05-16T17:07:27.859Z,60.84
2023-05-16T17:10:13.681Z,61.27
2023-05-16T17:13:02.985Z,62.27
2023-05-16T17:15:47.293Z,62.56
2023-05-16T17:18:34.471Z,62.20
2023-05-16T17:21:18.990Z,61.34
2023-05-16T17:24:03.628Z,61.85
2023-05-16T17:26:48.980Z,60.76
2023-05-16T17:29:33.046Z,59.46
2023-05-16T17:32:17.484Z,58.13
2023-05-16T17:35:04.268Z,57.94
2023-05-16T17:37:52.096Z,59.54
2023-05-16T17:40:35.970Z,59.21
2023-05-16T17:43:21.207Z,63.57
2023-05-16T17:46:06.463Z,65.26
2023-05-16T17:48:50.436Z,65.07
2023-05-16T17:51:47.557Z,66.74
2023-05-16T17:54:32.291Z,66.16
2023-05-16T17:57:16.369Z,67.69
2023-05-16T18:00:01.769Z,66.99
2023-05-16T18:02:52.426Z,66.85
2023-05-16T18:05:36.589Z,67.46
2023-05-16T18:08:20.707Z,67.36
2023-05-16T18:11:04.697Z,66.11
2023-05-16T18:13:48.635Z,65.29
2023-05-16T18:16:34.264Z,65.15
2023-05-16T18:19:18.375Z,64.20
2023-05-16T18:22:07.075Z,64.17
2023-05-16T18:24:51.280Z,63.68
2023-05-16T18:27:35.534Z,63.58
2023-05-16T18:30:19.693Z,66.46
2023-05-16T18:33:06.609Z,69.41
2023-05-16T18:35:50.992Z,70.24
2023-05-16T18:38:34.977Z,68.23
2023-05-16T18:41:19.017Z,68.97
2023-05-16T18:44:03.206Z,69.33
2023-05-16T18:46:48.224Z,68.82
2023-05-16T18:49:33.918Z,69.00
2023-05-16T18:52:18.340Z,69.96
2023-05-16T18:55:02.737Z,69.83
2023-05-16T18:57:48.032Z,70.21
2023-05-16T19:00:37.022Z,67.18
2023-05-16T19:03:21.522Z,66.82
2023-05-16T19:06:07.493Z,65.87
2023-05-16T19:08:51.786Z,66.04
2023-05-16T19:11:36.245Z,65.46
2023-05-16T19:14:20.700Z,65.20
2023-05-16T19:17:05.552Z,65.42
2023-05-16T19:19:50.077Z,65.72
2023-05-16T19:22:35.902Z,65.34
2023-05-16T19:25:20.291Z,65.00
2023-05-16T19:28:04.436Z,64.88
2023-05-16T19:30:48.896Z,65.08
2023-05-16T19:33:33.483Z,64.30
2023-05-16T19:36:17.973Z,63.26
2023-05-16T19:39:06.253Z,61.47
2023-05-16T19:41:52.085Z,60.77
2023-05-16T19:44:36.909Z,60.48
2023-05-16T19:47:21.866Z,60.18
2023-05-16T19:50:07.002Z,60.21
2023-05-16T19:52:54.543Z,59.11
2023-05-16T19:55:40.391Z,58.16
2023-05-16T19:58:24.709Z,56.77
2023-05-16T20:01:09.201Z,56.17
2023-05-16T20:03:53.568Z,57.98
2023-05-16T20:06:37.553Z,57.76
2023-05-16T20:09:21.715Z,58.67
2023-05-16T20:12:08.459Z,56.64
2023-05-16T20:14:53.025Z,56.16
2023-05-16T20:17:37.130Z,55.81
2023-05-16T20:20:21.335Z,56.54
2023-05-16T20:23:05.399Z,56.44
2023-05-16T20:25:49.643Z,55.51
2023-05-16T20:28:34.973Z,56.33
2023-05-16T20:31:18.965Z,56.74
2023-05-16T20:34:02.975Z,55.83
2023-05-16T20:36:46.976Z,56.53
2023-05-16T20:39:31.805Z,56.67
2023-05-16T20:42:15.842Z,57.12
2023-05-16T20:45:01.246Z,57.47
2023-05-16T20:47:51.243Z,56.96
2023-05-16T20:50:36.444Z,56.56
2023-05-16T20:53:20.655Z,56.31
2023-05-16T20:56:04.637Z,56.57
2023-05-16T20:58:48.661Z,56.88
2023-05-16T21:01:33.965Z,58.28
2023-05-16T21:04:17.918Z,58.22
2023-05-16T21:07:01.942Z,58.14
2023-05-16T21:09:45.832Z,58.06
2023-05-16T21:12:29.679Z,58.58
2023-05-16T21:15:13.606Z,59.06
2023-05-16T21:17:59.238Z,58.43
2023-05-16T21:20:43.316Z,58.13
2023-05-16T21:23:27.138Z,58.66
2023-05-16T21:26:11.251Z,59.31
2023-05-16T21:28:56.067Z,59.39
2023-05-16T21:31:40.404Z,59.52
2023-05-16T21:34:25.862Z,58.99
2023-05-16T21:37:11.815Z,58.78
2023-05-16T21:39:55.864Z,58.67
2023-05-16T21:42:39.670Z,58.16
2023-05-16T21:45:23.688Z,58.54
2023-05-16T21:48:07.918Z,57.80
2023-05-16T21:50:53.352Z,57.81
2023-05-16T21:53:38.453Z,57.83
2023-05-16T21:56:22.942Z,57.19
2023-05-16T21:59:06.888Z,57.06
2023-05-16T22:01:52.982Z,57.04
2023-05-16T22:04:36.971Z,56.80
2023-05-16T22:07:24.129Z,57.90
2023-05-16T22:10:10.901Z,58.43
2023-05-16T22:12:54.875Z,58.57
2023-05-16T22:15:40.716Z,57.83
2023-05-16T22:18:24.830Z,57.68
2023-05-16T22:21:08.817Z,57.00
2023-05-16T22:23:54.102Z,57.94
2023-05-16T22:26:37.931Z,58.77
2023-05-16T22:29:21.962Z,58.42
2023-05-16T22:32:07.914Z,60.06
2023-05-16T22:34:52.834Z,60.29
2023-05-16T22:37:37.772Z,58.81
2023-05-16T22:40:23.129Z,57.72
2023-05-16T22:43:07.038Z,57.46
2023-05-16T22:45:51.715Z,56.80
2023-05-16T22:48:35.803Z,57.41
2023-05-16T22:51:19.621Z,57.14
2023-05-16T22:54:03.712Z,56.79
2023-05-16T22:56:48.943Z,56.22
2023-05-16T22:59:32.964Z,55.31
2023-05-16T23:02:17.015Z,54.63
2023-05-16T23:05:00.922Z,54.44
2023-05-16T23:07:48.040Z,55.14
2023-05-16T23:10:32.005Z,56.03
2023-05-16T23:13:17.349Z,56.05
2023-05-16T23:16:01.195Z,57.09
2023-05-16T23:18:45.112Z,56.84
2023-05-16T23:21:29.071Z,57.00
2023-05-16T23:24:12.962Z,56.20
2023-05-16T23:26:56.870Z,56.63
2023-05-16T23:29:42.135Z,56.61
2023-05-16T23:32:26.219Z,57.67
2023-05-16T23:35:10.667Z,57.82
2023-05-16T23:37:54.553Z,58.22
2023-05-16T23:40:38.524Z,58.24
2023-05-16T23:43:22.371Z,58.96
2023-05-16T23:46:07.834Z,59.01
2023-05-16T23:48:51.831Z,59.39
2023-05-16T23:51:45.322Z,59.70
2023-05-16T23:54:39.582Z,60.09
2023-05-16T23:57:23.503Z,60.14
